sensor_id;sensor_type;location;lat;lon;timestamp;P1;durP1;ratioP1;P2;durP2;ratioP2
3922;SDS011;1976;51.694;6.256;2023-07-31T00:02:14;0.60;;;0.60;;
3922;SDS011;1976;51.694;6.256;2023-07-31T00:04:40;0.60;;;0.60;;
3922;SDS011;1976;51.694;6.256;2023-07-31T00:07:05;0.60;;;0.60;;
3922;SDS011;1976;51.694;6.256;2023-07-31T00:09:32;0.53;;;0.53;;
3922;SDS011;1976;51.694;6.256;2023-07-31T00:11:58;0.60;;;0.60;;
3922;SDS011;1976;51.694;6.256;2023-07-31T00:14:23;0.60;;;0.60;;
3922;SDS011;1976;51.694;6.256;2023-07-31T00:16:49;0.60;;;0.60;;
3922;SDS011;1976;51.694;6.256;2023-07-31T00:19:15;0.57;;;0.57;;
3922;SDS011;1976;51.694;6.256;2023-07-31T00:21:41;0.50;;;0.50;;
3922;SDS011;1976;51.694;6.256;2023-07-31T00:24:06;0.60;;;0.60;;
3922;SDS011;1976;51.694;6.256;2023-07-31T00:26:32;0.50;;;0.50;;
3922;SDS011;1976;51.694;6.256;2023-07-31T00:28:57;0.53;;;0.53;;
3922;SDS011;1976;51.694;6.256;2023-07-31T00:31:23;0.50;;;0.50;;
3922;SDS011;1976;51.694;6.256;2023-07-31T00:33:48;0.60;;;0.60;;
3922;SDS011;1976;51.694;6.256;2023-07-31T00:36:14;0.50;;;0.50;;
3922;SDS011;1976;51.694;6.256;2023-07-31T00:38:40;0.60;;;0.60;;
3922;SDS011;1976;51.694;6.256;2023-07-31T00:41:05;0.80;;;0.80;;
3922;SDS011;1976;51.694;6.256;2023-07-31T00:43:31;0.83;;;0.83;;
3922;SDS011;1976;51.694;6.256;2023-07-31T00:45:56;0.60;;;0.60;;
3922;SDS011;1976;51.694;6.256;2023-07-31T00:48:22;0.60;;;0.60;;
3922;SDS011;1976;51.694;6.256;2023-07-31T00:50:48;0.60;;;0.60;;
3922;SDS011;1976;51.694;6.256;2023-07-31T00:53:15;0.60;;;0.60;;
3922;SDS011;1976;51.694;6.256;2023-07-31T00:55:40;0.60;;;0.60;;
3922;SDS011;1976;51.694;6.256;2023-07-31T00:58:06;0.60;;;0.60;;
3922;SDS011;1976;51.694;6.256;2023-07-31T01:00:31;0.60;;;0.60;;
3922;SDS011;1976;51.694;6.256;2023-07-31T01:02:57;0.60;;;0.60;;
3922;SDS011;1976;51.694;6.256;2023-07-31T01:05:25;0.80;;;0.80;;
3922;SDS011;1976;51.694;6.256;2023-07-31T01:08:22;0.50;;;0.50;;
3922;SDS011;1976;51.694;6.256;2023-07-31T01:10:58;0.60;;;0.60;;
3922;SDS011;1976;51.694;6.256;2023-07-31T01:13:32;0.60;;;0.60;;
3922;SDS011;1976;51.694;6.256;2023-07-31T01:15:58;0.60;;;0.60;;
3922;SDS011;1976;51.694;6.256;2023-07-31T01:18:23;0.60;;;0.60;;
3922;SDS011;1976;51.694;6.256;2023-07-31T01:20:52;0.60;;;0.60;;
3922;SDS011;1976;51.694;6.256;2023-07-31T01:26:21;0.60;;;0.60;;
3922;SDS011;1976;51.694;6.256;2023-07-31T01:29:01;0.60;;;0.60;;
3922;SDS011;1976;51.694;6.256;2023-07-31T01:31:34;0.60;;;0.60;;
3922;SDS011;1976;51.694;6.256;2023-07-31T01:34:01;0.60;;;0.60;;
3922;SDS011;1976;51.694;6.256;2023-07-31T01:36:28;0.50;;;0.50;;
3922;SDS011;1976;51.694;6.256;2023-07-31T01:38:59;0.60;;;0.60;;
3922;SDS011;1976;51.694;6.256;2023-07-31T01:41:25;0.50;;;0.50;;
3922;SDS011;1976;51.694;6.256;2023-07-31T01:43:51;0.60;;;0.60;;
3922;SDS011;1976;51.694;6.256;2023-07-31T01:46:17;0.70;;;0.70;;
3922;SDS011;1976;51.694;6.256;2023-07-31T01:48:42;0.60;;;0.60;;
3922;SDS011;1976;51.694;6.256;2023-07-31T01:51:08;0.60;;;0.60;;
3922;SDS011;1976;51.694;6.256;2023-07-31T01:53:34;0.50;;;0.50;;
3922;SDS011;1976;51.694;6.256;2023-07-31T01:55:59;0.60;;;0.60;;
3922;SDS011;1976;51.694;6.256;2023-07-31T01:58:25;0.60;;;0.60;;
3922;SDS011;1976;51.694;6.256;2023-07-31T02:00:50;0.50;;;0.50;;
3922;SDS011;1976;51.694;6.256;2023-07-31T02:03:16;0.60;;;0.60;;
3922;SDS011;1976;51.694;6.256;2023-07-31T02:05:48;0.57;;;0.57;;
3922;SDS011;1976;51.694;6.256;2023-07-31T02:08:15;0.50;;;0.50;;
3922;SDS011;1976;51.694;6.256;2023-07-31T02:10:41;0.60;;;0.60;;
3922;SDS011;1976;51.694;6.256;2023-07-31T02:13:07;0.50;;;0.50;;
3922;SDS011;1976;51.694;6.256;2023-07-31T02:15:32;0.60;;;0.60;;
3922;SDS011;1976;51.694;6.256;2023-07-31T02:17:58;0.60;;;0.60;;
3922;SDS011;1976;51.694;6.256;2023-07-31T02:20:24;0.50;;;0.50;;
3922;SDS011;1976;51.694;6.256;2023-07-31T02:22:50;7.20;;;3.27;;
3922;SDS011;1976;51.694;6.256;2023-07-31T02:25:15;13.20;;;3.70;;
3922;SDS011;1976;51.694;6.256;2023-07-31T02:27:41;6.00;;;2.17;;
3922;SDS011;1976;51.694;6.256;2023-07-31T02:30:07;9.83;;;3.77;;
3922;SDS011;1976;51.694;6.256;2023-07-31T02:32:33;7.97;;;4.17;;
3922;SDS011;1976;51.694;6.256;2023-07-31T02:34:58;14.83;;;3.87;;
3922;SDS011;1976;51.694;6.256;2023-07-31T02:37:24;15.93;;;4.33;;
3922;SDS011;1976;51.694;6.256;2023-07-31T02:39:50;9.90;;;4.30;;
3922;SDS011;1976;51.694;6.256;2023-07-31T02:42:16;9.33;;;4.60;;
3922;SDS011;1976;51.694;6.256;2023-07-31T02:44:41;12.80;;;5.80;;
3922;SDS011;1976;51.694;6.256;2023-07-31T02:47:07;9.63;;;4.30;;
3922;SDS011;1976;51.694;6.256;2023-07-31T02:49:32;24.67;;;6.10;;
3922;SDS011;1976;51.694;6.256;2023-07-31T02:51:58;12.33;;;4.90;;
3922;SDS011;1976;51.694;6.256;2023-07-31T02:54:24;24.33;;;4.20;;
3922;SDS011;1976;51.694;6.256;2023-07-31T02:56:50;17.47;;;4.10;;
3922;SDS011;1976;51.694;6.256;2023-07-31T02:59:16;14.13;;;4.40;;
3922;SDS011;1976;51.694;6.256;2023-07-31T03:01:43;12.17;;;3.20;;
3922;SDS011;1976;51.694;6.256;2023-07-31T03:04:08;13.97;;;3.70;;
3922;SDS011;1976;51.694;6.256;2023-07-31T03:06:34;10.30;;;3.83;;
3922;SDS011;1976;51.694;6.256;2023-07-31T03:09:00;15.27;;;3.90;;
3922;SDS011;1976;51.694;6.256;2023-07-31T03:11:25;10.30;;;4.60;;
3922;SDS011;1976;51.694;6.256;2023-07-31T03:13:51;17.83;;;4.20;;
3922;SDS011;1976;51.694;6.256;2023-07-31T03:16:17;21.40;;;4.80;;
3922;SDS011;1976;51.694;6.256;2023-07-31T03:18:43;20.97;;;4.40;;
3922;SDS011;1976;51.694;6.256;2023-07-31T03:21:08;6.63;;;2.60;;
3922;SDS011;1976;51.694;6.256;2023-07-31T03:23:34;10.80;;;4.50;;
3922;SDS011;1976;51.694;6.256;2023-07-31T03:26:00;13.37;;;5.17;;
3922;SDS011;1976;51.694;6.256;2023-07-31T03:28:28;12.40;;;4.60;;
3922;SDS011;1976;51.694;6.256;2023-07-31T03:30:54;22.77;;;4.90;;
3922;SDS011;1976;51.694;6.256;2023-07-31T03:33:20;10.70;;;2.93;;
3922;SDS011;1976;51.694;6.256;2023-07-31T03:35:45;9.90;;;4.80;;
3922;SDS011;1976;51.694;6.256;2023-07-31T03:38:11;27.47;;;4.40;;
3922;SDS011;1976;51.694;6.256;2023-07-31T03:40:37;20.87;;;3.63;;
3922;SDS011;1976;51.694;6.256;2023-07-31T03:43:02;14.53;;;4.50;;
3922;SDS011;1976;51.694;6.256;2023-07-31T03:45:28;6.93;;;3.17;;
3922;SDS011;1976;51.694;6.256;2023-07-31T03:47:54;7.50;;;4.40;;
3922;SDS011;1976;51.694;6.256;2023-07-31T03:50:19;11.43;;;3.80;;
3922;SDS011;1976;51.694;6.256;2023-07-31T03:52:45;6.03;;;2.83;;
3922;SDS011;1976;51.694;6.256;2023-07-31T03:55:11;5.97;;;3.13;;
3922;SDS011;1976;51.694;6.256;2023-07-31T03:57:37;13.70;;;3.63;;
3922;SDS011;1976;51.694;6.256;2023-07-31T04:00:02;9.83;;;3.17;;
3922;SDS011;1976;51.694;6.256;2023-07-31T04:02:28;13.47;;;3.80;;
3922;SDS011;1976;51.694;6.256;2023-07-31T04:04:54;19.03;;;4.60;;
3922;SDS011;1976;51.694;6.256;2023-07-31T04:07:20;13.37;;;3.97;;
3922;SDS011;1976;51.694;6.256;2023-07-31T04:09:45;20.77;;;4.87;;
3922;SDS011;1976;51.694;6.256;2023-07-31T04:12:11;8.97;;;3.67;;
3922;SDS011;1976;51.694;6.256;2023-07-31T04:14:36;7.80;;;3.43;;
3922;SDS011;1976;51.694;6.256;2023-07-31T04:17:02;13.80;;;4.27;;
3922;SDS011;1976;51.694;6.256;2023-07-31T04:19:28;14.93;;;3.40;;
3922;SDS011;1976;51.694;6.256;2023-07-31T04:21:53;13.63;;;4.13;;
3922;SDS011;1976;51.694;6.256;2023-07-31T04:24:19;29.53;;;5.30;;
3922;SDS011;1976;51.694;6.256;2023-07-31T04:26:49;16.37;;;4.20;;
3922;SDS011;1976;51.694;6.256;2023-07-31T04:29:16;18.40;;;3.87;;
3922;SDS011;1976;51.694;6.256;2023-07-31T04:31:41;4.03;;;2.63;;
3922;SDS011;1976;51.694;6.256;2023-07-31T04:34:07;10.47;;;4.40;;
3922;SDS011;1976;51.694;6.256;2023-07-31T04:36:33;6.80;;;3.40;;
3922;SDS011;1976;51.694;6.256;2023-07-31T04:38:59;7.10;;;1.90;;
3922;SDS011;1976;51.694;6.256;2023-07-31T04:41:25;10.13;;;4.43;;
3922;SDS011;1976;51.694;6.256;2023-07-31T04:43:51;6.30;;;3.20;;
3922;SDS011;1976;51.694;6.256;2023-07-31T04:46:16;9.00;;;2.97;;
3922;SDS011;1976;51.694;6.256;2023-07-31T04:48:42;13.83;;;3.57;;
3922;SDS011;1976;51.694;6.256;2023-07-31T04:51:08;30.73;;;5.50;;
3922;SDS011;1976;51.694;6.256;2023-07-31T04:53:34;8.40;;;3.70;;
3922;SDS011;1976;51.694;6.256;2023-07-31T04:56:00;8.53;;;3.80;;
3922;SDS011;1976;51.694;6.256;2023-07-31T04:58:26;10.13;;;3.00;;
3922;SDS011;1976;51.694;6.256;2023-07-31T05:00:51;21.17;;;5.77;;
3922;SDS011;1976;51.694;6.256;2023-07-31T05:03:17;5.20;;;2.80;;
3922;SDS011;1976;51.694;6.256;2023-07-31T05:05:43;24.87;;;4.40;;
3922;SDS011;1976;51.694;6.256;2023-07-31T05:08:08;10.30;;;4.70;;
3922;SDS011;1976;51.694;6.256;2023-07-31T05:10:34;9.60;;;4.30;;
3922;SDS011;1976;51.694;6.256;2023-07-31T05:13:00;20.57;;;3.73;;
3922;SDS011;1976;51.694;6.256;2023-07-31T05:15:25;14.23;;;4.47;;
3922;SDS011;1976;51.694;6.256;2023-07-31T05:17:51;7.63;;;2.73;;
3922;SDS011;1976;51.694;6.256;2023-07-31T05:20:17;10.23;;;3.30;;
3922;SDS011;1976;51.694;6.256;2023-07-31T05:22:42;15.07;;;4.40;;
3922;SDS011;1976;51.694;6.256;2023-07-31T05:25:08;4.37;;;3.60;;
3922;SDS011;1976;51.694;6.256;2023-07-31T05:27:34;16.40;;;4.20;;
3922;SDS011;1976;51.694;6.256;2023-07-31T05:29:59;8.90;;;4.57;;
3922;SDS011;1976;51.694;6.256;2023-07-31T05:32:25;5.10;;;2.83;;
3922;SDS011;1976;51.694;6.256;2023-07-31T05:34:51;6.93;;;3.30;;
3922;SDS011;1976;51.694;6.256;2023-07-31T05:37:18;9.80;;;4.33;;
3922;SDS011;1976;51.694;6.256;2023-07-31T05:39:44;15.23;;;3.40;;
3922;SDS011;1976;51.694;6.256;2023-07-31T05:42:09;9.33;;;4.60;;
3922;SDS011;1976;51.694;6.256;2023-07-31T05:44:35;19.73;;;5.07;;
3922;SDS011;1976;51.694;6.256;2023-07-31T05:47:01;5.50;;;3.00;;
3922;SDS011;1976;51.694;6.256;2023-07-31T05:49:26;8.53;;;4.03;;
3922;SDS011;1976;51.694;6.256;2023-07-31T05:51:52;15.20;;;4.80;;
3922;SDS011;1976;51.694;6.256;2023-07-31T05:54:17;14.53;;;3.60;;
3922;SDS011;1976;51.694;6.256;2023-07-31T05:56:43;6.13;;;3.53;;
3922;SDS011;1976;51.694;6.256;2023-07-31T05:59:09;16.87;;;4.33;;
3922;SDS011;1976;51.694;6.256;2023-07-31T06:01:37;13.30;;;3.57;;
3922;SDS011;1976;51.694;6.256;2023-07-31T06:04:02;5.60;;;2.60;;
3922;SDS011;1976;51.694;6.256;2023-07-31T06:06:28;0.60;;;0.60;;
3922;SDS011;1976;51.694;6.256;2023-07-31T06:08:54;0.60;;;0.60;;
3922;SDS011;1976;51.694;6.256;2023-07-31T06:11:20;0.60;;;0.60;;
3922;SDS011;1976;51.694;6.256;2023-07-31T06:13:46;0.60;;;0.60;;
3922;SDS011;1976;51.694;6.256;2023-07-31T06:16:13;0.60;;;0.60;;
3922;SDS011;1976;51.694;6.256;2023-07-31T06:18:39;0.60;;;0.60;;
3922;SDS011;1976;51.694;6.256;2023-07-31T06:21:05;0.60;;;0.60;;
3922;SDS011;1976;51.694;6.256;2023-07-31T06:23:31;0.53;;;0.53;;
3922;SDS011;1976;51.694;6.256;2023-07-31T06:25:57;0.60;;;0.60;;
3922;SDS011;1976;51.694;6.256;2023-07-31T06:28:26;0.60;;;0.60;;
3922;SDS011;1976;51.694;6.256;2023-07-31T06:30:56;0.60;;;0.60;;
3922;SDS011;1976;51.694;6.256;2023-07-31T06:33:25;0.60;;;0.60;;
3922;SDS011;1976;51.694;6.256;2023-07-31T06:35:52;0.60;;;0.60;;
3922;SDS011;1976;51.694;6.256;2023-07-31T06:38:35;0.60;;;0.60;;
3922;SDS011;1976;51.694;6.256;2023-07-31T06:41:02;0.60;;;0.60;;
3922;SDS011;1976;51.694;6.256;2023-07-31T06:43:29;0.60;;;0.60;;
3922;SDS011;1976;51.694;6.256;2023-07-31T06:45:54;0.50;;;0.50;;
3922;SDS011;1976;51.694;6.256;2023-07-31T06:48:20;0.60;;;0.60;;
3922;SDS011;1976;51.694;6.256;2023-07-31T06:50:45;0.70;;;0.70;;
3922;SDS011;1976;51.694;6.256;2023-07-31T06:53:11;0.60;;;0.60;;
3922;SDS011;1976;51.694;6.256;2023-07-31T06:55:36;2.90;;;1.20;;
3922;SDS011;1976;51.694;6.256;2023-07-31T06:58:02;0.57;;;0.57;;
3922;SDS011;1976;51.694;6.256;2023-07-31T07:00:28;0.60;;;0.60;;
3922;SDS011;1976;51.694;6.256;2023-07-31T07:02:54;0.60;;;0.60;;
3922;SDS011;1976;51.694;6.256;2023-07-31T07:05:19;0.60;;;0.60;;
3922;SDS011;1976;51.694;6.256;2023-07-31T07:07:45;0.60;;;0.60;;
3922;SDS011;1976;51.694;6.256;2023-07-31T07:10:11;0.60;;;0.60;;
3922;SDS011;1976;51.694;6.256;2023-07-31T07:12:37;0.60;;;0.60;;
3922;SDS011;1976;51.694;6.256;2023-07-31T07:15:02;0.60;;;0.60;;
3922;SDS011;1976;51.694;6.256;2023-07-31T07:17:29;0.60;;;0.60;;
3922;SDS011;1976;51.694;6.256;2023-07-31T07:19:58;0.60;;;0.60;;
3922;SDS011;1976;51.694;6.256;2023-07-31T07:22:24;0.50;;;0.50;;
3922;SDS011;1976;51.694;6.256;2023-07-31T07:24:51;0.70;;;0.70;;
3922;SDS011;1976;51.694;6.256;2023-07-31T07:27:16;0.50;;;0.50;;
3922;SDS011;1976;51.694;6.256;2023-07-31T07:29:42;0.60;;;0.60;;
3922;SDS011;1976;51.694;6.256;2023-07-31T07:32:08;0.50;;;0.50;;
3922;SDS011;1976;51.694;6.256;2023-07-31T07:34:33;0.60;;;0.60;;
3922;SDS011;1976;51.694;6.256;2023-07-31T07:36:59;0.60;;;0.60;;
3922;SDS011;1976;51.694;6.256;2023-07-31T07:39:24;0.50;;;0.50;;
3922;SDS011;1976;51.694;6.256;2023-07-31T07:41:50;0.50;;;0.50;;
3922;SDS011;1976;51.694;6.256;2023-07-31T07:44:16;0.57;;;0.57;;
3922;SDS011;1976;51.694;6.256;2023-07-31T07:46:41;0.60;;;0.60;;
3922;SDS011;1976;51.694;6.256;2023-07-31T07:49:08;3.80;;;3.40;;
3922;SDS011;1976;51.694;6.256;2023-07-31T07:51:34;10.33;;;2.53;;
3922;SDS011;1976;51.694;6.256;2023-07-31T07:53:59;2.17;;;2.00;;
3922;SDS011;1976;51.694;6.256;2023-07-31T07:56:26;4.53;;;3.03;;
3922;SDS011;1976;51.694;6.256;2023-07-31T07:58:52;3.27;;;2.70;;
3922;SDS011;1976;51.694;6.256;2023-07-31T08:01:18;2.60;;;2.10;;
3922;SDS011;1976;51.694;6.256;2023-07-31T08:03:44;4.43;;;2.30;;
3922;SDS011;1976;51.694;6.256;2023-07-31T08:06:10;2.43;;;2.23;;
3922;SDS011;1976;51.694;6.256;2023-07-31T08:08:36;4.93;;;2.23;;
3922;SDS011;1976;51.694;6.256;2023-07-31T08:11:02;4.53;;;2.50;;
3922;SDS011;1976;51.694;6.256;2023-07-31T08:13:28;3.73;;;2.63;;
3922;SDS011;1976;51.694;6.256;2023-07-31T08:15:54;6.17;;;2.90;;
3922;SDS011;1976;51.694;6.256;2023-07-31T08:18:19;4.10;;;2.77;;
3922;SDS011;1976;51.694;6.256;2023-07-31T08:20:45;3.53;;;3.00;;
3922;SDS011;1976;51.694;6.256;2023-07-31T08:23:11;4.63;;;2.80;;
3922;SDS011;1976;51.694;6.256;2023-07-31T08:25:37;5.67;;;3.23;;
3922;SDS011;1976;51.694;6.256;2023-07-31T08:28:03;4.80;;;2.07;;
3922;SDS011;1976;51.694;6.256;2023-07-31T08:30:30;5.10;;;2.40;;
3922;SDS011;1976;51.694;6.256;2023-07-31T08:32:56;2.60;;;2.40;;
3922;SDS011;1976;51.694;6.256;2023-07-31T08:35:22;3.03;;;2.73;;
3922;SDS011;1976;51.694;6.256;2023-07-31T08:37:49;4.00;;;1.90;;
3922;SDS011;1976;51.694;6.256;2023-07-31T08:40:15;0.60;;;0.60;;
3922;SDS011;1976;51.694;6.256;2023-07-31T08:42:44;0.60;;;0.60;;
3922;SDS011;1976;51.694;6.256;2023-07-31T08:45:14;0.60;;;0.60;;
3922;SDS011;1976;51.694;6.256;2023-07-31T08:47:43;0.60;;;0.60;;
3922;SDS011;1976;51.694;6.256;2023-07-31T08:50:12;2.20;;;2.00;;
3922;SDS011;1976;51.694;6.256;2023-07-31T08:52:39;3.87;;;3.17;;
3922;SDS011;1976;51.694;6.256;2023-07-31T08:55:05;5.50;;;3.30;;
3922;SDS011;1976;51.694;6.256;2023-07-31T08:57:32;6.00;;;3.20;;
3922;SDS011;1976;51.694;6.256;2023-07-31T09:00:00;10.63;;;3.63;;
3922;SDS011;1976;51.694;6.256;2023-07-31T09:02:28;4.60;;;2.90;;
3922;SDS011;1976;51.694;6.256;2023-07-31T09:05:16;4.07;;;2.57;;
3922;SDS011;1976;51.694;6.256;2023-07-31T09:07:42;2.53;;;2.33;;
3922;SDS011;1976;51.694;6.256;2023-07-31T09:10:11;3.00;;;2.10;;
3922;SDS011;1976;51.694;6.256;2023-07-31T09:12:37;2.60;;;2.40;;
3922;SDS011;1976;51.694;6.256;2023-07-31T09:15:03;3.30;;;2.57;;
3922;SDS011;1976;51.694;6.256;2023-07-31T09:17:30;2.60;;;2.13;;
3922;SDS011;1976;51.694;6.256;2023-07-31T09:19:57;2.80;;;2.43;;
3922;SDS011;1976;51.694;6.256;2023-07-31T09:22:37;3.43;;;2.30;;
3922;SDS011;1976;51.694;6.256;2023-07-31T09:25:16;8.40;;;3.27;;
3922;SDS011;1976;51.694;6.256;2023-07-31T09:27:57;5.50;;;2.63;;
3922;SDS011;1976;51.694;6.256;2023-07-31T09:30:24;4.30;;;2.67;;
3922;SDS011;1976;51.694;6.256;2023-07-31T09:32:51;0.50;;;0.50;;
3922;SDS011;1976;51.694;6.256;2023-07-31T09:35:32;0.60;;;0.60;;
3922;SDS011;1976;51.694;6.256;2023-07-31T09:38:03;0.60;;;0.60;;
3922;SDS011;1976;51.694;6.256;2023-07-31T09:40:44;0.60;;;0.60;;
3922;SDS011;1976;51.694;6.256;2023-07-31T09:43:12;0.57;;;0.57;;
3922;SDS011;1976;51.694;6.256;2023-07-31T09:45:42;0.60;;;0.60;;
3922;SDS011;1976;51.694;6.256;2023-07-31T09:48:09;0.60;;;0.60;;
3922;SDS011;1976;51.694;6.256;2023-07-31T09:50:37;0.53;;;0.53;;
3922;SDS011;1976;51.694;6.256;2023-07-31T09:53:04;2.80;;;2.60;;
3922;SDS011;1976;51.694;6.256;2023-07-31T09:55:30;5.93;;;2.80;;
3922;SDS011;1976;51.694;6.256;2023-07-31T09:57:59;8.13;;;3.10;;
3922;SDS011;1976;51.694;6.256;2023-07-31T10:00:29;2.70;;;2.50;;
3922;SDS011;1976;51.694;6.256;2023-07-31T10:02:58;5.23;;;4.40;;
3922;SDS011;1976;51.694;6.256;2023-07-31T10:05:28;0.60;;;0.60;;
3922;SDS011;1976;51.694;6.256;2023-07-31T10:07:58;0.70;;;0.70;;
3922;SDS011;1976;51.694;6.256;2023-07-31T10:10:25;0.50;;;0.50;;
3922;SDS011;1976;51.694;6.256;2023-07-31T10:12:52;0.60;;;0.60;;
3922;SDS011;1976;51.694;6.256;2023-07-31T10:15:19;0.60;;;0.60;;
3922;SDS011;1976;51.694;6.256;2023-07-31T10:17:49;0.60;;;0.60;;
3922;SDS011;1976;51.694;6.256;2023-07-31T10:20:16;0.60;;;0.60;;
3922;SDS011;1976;51.694;6.256;2023-07-31T10:22:42;0.60;;;0.60;;
3922;SDS011;1976;51.694;6.256;2023-07-31T10:25:10;0.80;;;0.70;;
3922;SDS011;1976;51.694;6.256;2023-07-31T10:27:37;0.60;;;0.60;;
3922;SDS011;1976;51.694;6.256;2023-07-31T10:30:04;0.50;;;0.50;;
3922;SDS011;1976;51.694;6.256;2023-07-31T10:32:33;0.60;;;0.60;;
3922;SDS011;1976;51.694;6.256;2023-07-31T10:34:59;0.50;;;0.50;;
3922;SDS011;1976;51.694;6.256;2023-07-31T10:37:29;0.60;;;0.60;;
3922;SDS011;1976;51.694;6.256;2023-07-31T10:40:18;0.50;;;0.50;;
3922;SDS011;1976;51.694;6.256;2023-07-31T10:45:32;13.63;;;4.87;;
3922;SDS011;1976;51.694;6.256;2023-07-31T10:47:58;4.30;;;2.43;;
3922;SDS011;1976;51.694;6.256;2023-07-31T10:50:25;3.87;;;2.77;;
3922;SDS011;1976;51.694;6.256;2023-07-31T10:52:52;6.63;;;2.60;;
3922;SDS011;1976;51.694;6.256;2023-07-31T10:55:25;5.80;;;3.97;;
3922;SDS011;1976;51.694;6.256;2023-07-31T10:57:57;9.50;;;3.10;;
3922;SDS011;1976;51.694;6.256;2023-07-31T11:00:33;7.70;;;3.60;;
3922;SDS011;1976;51.694;6.256;2023-07-31T11:03:02;5.83;;;2.80;;
3922;SDS011;1976;51.694;6.256;2023-07-31T11:05:45;6.50;;;3.73;;
3922;SDS011;1976;51.694;6.256;2023-07-31T11:08:11;2.40;;;2.20;;
3922;SDS011;1976;51.694;6.256;2023-07-31T11:11:04;9.97;;;3.63;;
3922;SDS011;1976;51.694;6.256;2023-07-31T11:13:32;4.57;;;3.73;;
3922;SDS011;1976;51.694;6.256;2023-07-31T11:15:59;9.77;;;3.07;;
3922;SDS011;1976;51.694;6.256;2023-07-31T11:18:25;4.13;;;2.67;;
3922;SDS011;1976;51.694;6.256;2023-07-31T11:20:52;2.77;;;2.57;;
3922;SDS011;1976;51.694;6.256;2023-07-31T11:23:19;4.10;;;3.20;;
3922;SDS011;1976;51.694;6.256;2023-07-31T11:25:45;6.80;;;3.37;;
3922;SDS011;1976;51.694;6.256;2023-07-31T11:28:11;5.67;;;3.00;;
3922;SDS011;1976;51.694;6.256;2023-07-31T11:30:39;7.60;;;2.50;;
3922;SDS011;1976;51.694;6.256;2023-07-31T11:33:08;4.13;;;2.70;;
3922;SDS011;1976;51.694;6.256;2023-07-31T11:35:40;4.60;;;3.20;;
3922;SDS011;1976;51.694;6.256;2023-07-31T11:38:08;2.83;;;2.50;;
3922;SDS011;1976;51.694;6.256;2023-07-31T11:40:43;3.53;;;2.83;;
3922;SDS011;1976;51.694;6.256;2023-07-31T11:43:09;3.30;;;2.47;;
3922;SDS011;1976;51.694;6.256;2023-07-31T11:45:41;5.97;;;3.23;;
3922;SDS011;1976;51.694;6.256;2023-07-31T11:48:07;5.50;;;3.23;;
3922;SDS011;1976;51.694;6.256;2023-07-31T11:50:33;2.60;;;2.40;;
3922;SDS011;1976;51.694;6.256;2023-07-31T11:53:02;4.87;;;3.03;;
3922;SDS011;1976;51.694;6.256;2023-07-31T11:55:32;3.53;;;2.77;;
3922;SDS011;1976;51.694;6.256;2023-07-31T11:57:58;3.03;;;1.93;;
3922;SDS011;1976;51.694;6.256;2023-07-31T12:00:25;2.40;;;2.20;;
3922;SDS011;1976;51.694;6.256;2023-07-31T12:02:52;7.00;;;2.80;;
3922;SDS011;1976;51.694;6.256;2023-07-31T12:05:18;9.97;;;3.53;;
3922;SDS011;1976;51.694;6.256;2023-07-31T12:07:45;4.87;;;2.97;;
3922;SDS011;1976;51.694;6.256;2023-07-31T12:13:05;8.00;;;2.87;;
3922;SDS011;1976;51.694;6.256;2023-07-31T12:18:11;3.83;;;2.90;;
3922;SDS011;1976;51.694;6.256;2023-07-31T12:23:18;7.30;;;4.03;;
3922;SDS011;1976;51.694;6.256;2023-07-31T12:28:28;3.17;;;2.57;;
3922;SDS011;1976;51.694;6.256;2023-07-31T12:30:58;3.93;;;2.80;;
3922;SDS011;1976;51.694;6.256;2023-07-31T12:33:29;2.73;;;2.10;;
3922;SDS011;1976;51.694;6.256;2023-07-31T12:35:57;4.27;;;1.63;;
3922;SDS011;1976;51.694;6.256;2023-07-31T12:38:23;3.60;;;2.90;;
3922;SDS011;1976;51.694;6.256;2023-07-31T12:40:48;3.87;;;2.73;;
3922;SDS011;1976;51.694;6.256;2023-07-31T12:43:14;3.10;;;2.83;;
3922;SDS011;1976;51.694;6.256;2023-07-31T12:45:40;4.90;;;2.77;;
3922;SDS011;1976;51.694;6.256;2023-07-31T12:48:06;6.43;;;2.10;;
3922;SDS011;1976;51.694;6.256;2023-07-31T12:50:31;3.90;;;2.10;;
3922;SDS011;1976;51.694;6.256;2023-07-31T12:52:57;2.90;;;1.73;;
3922;SDS011;1976;51.694;6.256;2023-07-31T12:55:23;0.97;;;0.97;;
3922;SDS011;1976;51.694;6.256;2023-07-31T12:57:49;1.80;;;1.70;;
3922;SDS011;1976;51.694;6.256;2023-07-31T13:00:15;2.70;;;2.20;;
3922;SDS011;1976;51.694;6.256;2023-07-31T13:02:41;3.80;;;2.30;;
3922;SDS011;1976;51.694;6.256;2023-07-31T13:05:06;4.73;;;2.50;;
3922;SDS011;1976;51.694;6.256;2023-07-31T13:07:32;4.10;;;2.60;;
3922;SDS011;1976;51.694;6.256;2023-07-31T13:09:58;7.93;;;2.53;;
3922;SDS011;1976;51.694;6.256;2023-07-31T13:12:24;1.60;;;1.50;;
3922;SDS011;1976;51.694;6.256;2023-07-31T13:14:50;8.17;;;3.17;;
3922;SDS011;1976;51.694;6.256;2023-07-31T13:17:15;2.33;;;1.77;;
3922;SDS011;1976;51.694;6.256;2023-07-31T13:19:41;6.23;;;2.60;;
3922;SDS011;1976;51.694;6.256;2023-07-31T13:22:08;4.00;;;2.60;;
3922;SDS011;1976;51.694;6.256;2023-07-31T13:24:33;4.90;;;2.97;;
3922;SDS011;1976;51.694;6.256;2023-07-31T13:26:59;2.33;;;2.13;;
3922;SDS011;1976;51.694;6.256;2023-07-31T13:29:25;7.20;;;3.37;;
3922;SDS011;1976;51.694;6.256;2023-07-31T13:31:51;4.10;;;2.80;;
3922;SDS011;1976;51.694;6.256;2023-07-31T13:34:17;2.57;;;1.73;;
3922;SDS011;1976;51.694;6.256;2023-07-31T13:36:43;4.70;;;2.57;;
3922;SDS011;1976;51.694;6.256;2023-07-31T13:39:09;5.60;;;2.40;;
3922;SDS011;1976;51.694;6.256;2023-07-31T13:41:34;2.90;;;2.27;;
3922;SDS011;1976;51.694;6.256;2023-07-31T13:44:00;2.37;;;1.90;;
3922;SDS011;1976;51.694;6.256;2023-07-31T13:46:26;6.20;;;2.70;;
3922;SDS011;1976;51.694;6.256;2023-07-31T13:48:51;5.30;;;4.03;;
3922;SDS011;1976;51.694;6.256;2023-07-31T13:51:20;3.03;;;2.07;;
3922;SDS011;1976;51.694;6.256;2023-07-31T13:53:46;4.13;;;2.27;;
3922;SDS011;1976;51.694;6.256;2023-07-31T13:56:12;5.20;;;2.97;;
3922;SDS011;1976;51.694;6.256;2023-07-31T13:58:38;5.07;;;3.00;;
3922;SDS011;1976;51.694;6.256;2023-07-31T14:01:04;6.63;;;3.67;;
3922;SDS011;1976;51.694;6.256;2023-07-31T14:03:30;3.37;;;2.23;;
3922;SDS011;1976;51.694;6.256;2023-07-31T14:05:56;4.10;;;2.83;;
3922;SDS011;1976;51.694;6.256;2023-07-31T14:08:22;7.03;;;3.00;;
3922;SDS011;1976;51.694;6.256;2023-07-31T14:10:47;7.07;;;4.30;;
3922;SDS011;1976;51.694;6.256;2023-07-31T14:13:13;5.60;;;2.97;;
3922;SDS011;1976;51.694;6.256;2023-07-31T14:15:41;2.80;;;2.60;;
3922;SDS011;1976;51.694;6.256;2023-07-31T14:18:08;4.43;;;2.40;;
3922;SDS011;1976;51.694;6.256;2023-07-31T14:20:34;8.73;;;3.50;;
3922;SDS011;1976;51.694;6.256;2023-07-31T14:22:59;4.97;;;2.87;;
3922;SDS011;1976;51.694;6.256;2023-07-31T14:25:26;7.80;;;3.27;;
3922;SDS011;1976;51.694;6.256;2023-07-31T14:27:51;3.43;;;2.73;;
3922;SDS011;1976;51.694;6.256;2023-07-31T14:30:17;7.87;;;4.07;;
3922;SDS011;1976;51.694;6.256;2023-07-31T14:32:43;5.70;;;3.30;;
3922;SDS011;1976;51.694;6.256;2023-07-31T14:35:09;4.57;;;3.23;;
3922;SDS011;1976;51.694;6.256;2023-07-31T14:37:38;0.70;;;0.70;;
3922;SDS011;1976;51.694;6.256;2023-07-31T14:40:09;0.60;;;0.60;;
3922;SDS011;1976;51.694;6.256;2023-07-31T14:42:35;0.60;;;0.60;;
3922;SDS011;1976;51.694;6.256;2023-07-31T14:45:03;0.60;;;0.60;;
3922;SDS011;1976;51.694;6.256;2023-07-31T14:47:29;0.60;;;0.60;;
3922;SDS011;1976;51.694;6.256;2023-07-31T14:49:56;0.80;;;0.80;;
3922;SDS011;1976;51.694;6.256;2023-07-31T14:52:21;0.50;;;0.50;;
3922;SDS011;1976;51.694;6.256;2023-07-31T14:54:47;0.60;;;0.60;;
3922;SDS011;1976;51.694;6.256;2023-07-31T14:57:13;0.60;;;0.60;;
3922;SDS011;1976;51.694;6.256;2023-07-31T14:59:38;0.60;;;0.60;;
3922;SDS011;1976;51.694;6.256;2023-07-31T15:02:04;0.50;;;0.50;;
3922;SDS011;1976;51.694;6.256;2023-07-31T15:04:30;0.60;;;0.60;;
3922;SDS011;1976;51.694;6.256;2023-07-31T15:06:56;0.60;;;0.60;;
3922;SDS011;1976;51.694;6.256;2023-07-31T15:09:22;0.50;;;0.50;;
3922;SDS011;1976;51.694;6.256;2023-07-31T15:11:47;0.50;;;0.50;;
3922;SDS011;1976;51.694;6.256;2023-07-31T15:14:13;0.50;;;0.50;;
3922;SDS011;1976;51.694;6.256;2023-07-31T15:16:38;0.60;;;0.60;;
3922;SDS011;1976;51.694;6.256;2023-07-31T15:19:04;0.60;;;0.60;;
3922;SDS011;1976;51.694;6.256;2023-07-31T15:21:30;0.60;;;0.60;;
3922;SDS011;1976;51.694;6.256;2023-07-31T15:23:55;0.50;;;0.50;;
3922;SDS011;1976;51.694;6.256;2023-07-31T15:26:21;0.60;;;0.60;;
3922;SDS011;1976;51.694;6.256;2023-07-31T15:28:48;0.60;;;0.60;;